createdAt,value
2018-12-30T00:00:49.603Z,413
2018-12-30T00:01:57.467Z,412
2018-12-30T00:03:06.029Z,412
2018-12-30T00:04:14.048Z,412
2018-12-30T00:05:21.740Z,412
2018-12-30T00:06:29.334Z,412
2018-12-30T00:07:36.986Z,412
2018-12-30T00:08:44.189Z,412
2018-12-30T00:09:51.303Z,412
2018-12-30T00:10:59.073Z,411
2018-12-30T00:12:06.790Z,411
2018-12-30T00:13:13.981Z,411
2018-12-30T00:14:21.177Z,411
2018-12-30T00:15:28.101Z,411
2018-12-30T00:16:35.072Z,410
2018-12-30T00:17:42.272Z,411
2018-12-30T00:18:49.488Z,409
2018-12-30T00:19:56.701Z,409
2018-12-30T00:21:10.099Z,409
2018-12-30T00:22:17.346Z,408
2018-12-30T00:23:24.277Z,407
2018-12-30T00:24:31.209Z,408
2018-12-30T00:25:38.418Z,410
2018-12-30T00:26:45.637Z,412
2018-12-30T00:27:52.834Z,412
2018-12-30T00:29:00.042Z,414
2018-12-30T00:30:07.324Z,414
2018-12-30T00:31:14.266Z,413
2018-12-30T00:32:21.472Z,415
2018-12-30T00:33:28.738Z,414
2018-12-30T00:34:35.946Z,412
2018-12-30T00:35:43.157Z,413
2018-12-30T00:36:50.111Z,414
2018-12-30T00:37:57.553Z,416
2018-12-30T00:39:04.924Z,415
2018-12-30T00:40:12.535Z,413
2018-12-30T00:41:20.376Z,414
2018-12-30T00:42:28.282Z,416
2018-12-30T00:43:36.478Z,417
2018-12-30T00:44:44.637Z,414
2018-12-30T00:45:52.955Z,417
2018-12-30T00:47:01.141Z,417
2018-12-30T00:48:09.328Z,416
2018-12-30T00:49:17.633Z,415
2018-12-30T00:50:26.016Z,415
2018-12-30T00:51:34.172Z,417
2018-12-30T00:52:42.479Z,416
2018-12-30T00:53:50.286Z,418
2018-12-30T00:54:58.406Z,418
2018-12-30T00:56:06.486Z,417
2018-12-30T00:57:14.271Z,417
2018-12-30T00:58:22.672Z,417
2018-12-30T00:59:31.068Z,416
2018-12-30T01:00:39.169Z,418
2018-12-30T01:01:47.644Z,418
2018-12-30T01:02:55.915Z,418
2018-12-30T01:04:04.159Z,418
2018-12-30T01:05:12.503Z,418
2018-12-30T01:06:20.768Z,419
2018-12-30T01:07:29.201Z,418
2018-12-30T01:08:37.042Z,418
2018-12-30T01:09:45.471Z,419
2018-12-30T01:10:53.641Z,418
2018-12-30T01:12:02.175Z,417
2018-12-30T01:13:10.444Z,417
2018-12-30T01:14:18.868Z,414
2018-12-30T01:15:27.346Z,415
2018-12-30T01:16:35.442Z,412
2018-12-30T01:17:43.586Z,412
2018-12-30T01:18:51.297Z,412
2018-12-30T01:19:59.567Z,411
2018-12-30T01:21:07.785Z,412
2018-12-30T01:22:16.342Z,411
2018-12-30T01:23:24.636Z,411
2018-12-30T01:24:32.496Z,409
2018-12-30T01:25:40.618Z,412
2018-12-30T01:26:49.104Z,412
2018-12-30T01:27:57.420Z,413
2018-12-30T01:29:05.963Z,414
2018-12-30T01:30:13.978Z,415
2018-12-30T01:31:22.298Z,415
2018-12-30T01:32:30.553Z,415
2018-12-30T01:33:38.912Z,415
2018-12-30T01:34:47.110Z,416
2018-12-30T01:35:55.459Z,415
2018-12-30T01:37:03.274Z,415
2018-12-30T01:38:11.392Z,415
2018-12-30T01:39:19.621Z,414
2018-12-30T01:40:27.660Z,415
2018-12-30T01:41:35.788Z,413
2018-12-30T01:42:43.881Z,413
2018-12-30T01:43:51.872Z,412
2018-12-30T01:45:00.020Z,412
2018-12-30T01:46:07.937Z,416
2018-12-30T01:47:16.095Z,419
2018-12-30T01:48:24.220Z,420
2018-12-30T01:49:32.000Z,419
2018-12-30T01:50:40.246Z,419
2018-12-30T01:51:48.351Z,418
2018-12-30T01:52:56.280Z,417
2018-12-30T01:54:04.338Z,416
2018-12-30T01:55:12.109Z,415
2018-12-30T01:56:20.366Z,416
2018-12-30T01:57:28.585Z,416
2018-12-30T01:58:36.755Z,415
2018-12-30T01:59:44.432Z,415
2018-12-30T02:00:52.473Z,415
2018-12-30T02:02:00.638Z,416
2018-12-30T02:03:08.402Z,417
2018-12-30T02:04:16.406Z,416
2018-12-30T02:05:24.359Z,416
2018-12-30T02:06:32.055Z,418
2018-12-30T02:07:40.166Z,419
2018-12-30T02:08:47.929Z,417
2018-12-30T02:09:55.432Z,415
2018-12-30T02:11:03.390Z,413
2018-12-30T02:12:10.926Z,413
2018-12-30T02:13:18.326Z,412
2018-12-30T02:14:26.530Z,412
2018-12-30T02:15:34.388Z,410
2018-12-30T02:16:42.034Z,412
2018-12-30T02:17:49.972Z,412
2018-12-30T02:18:58.042Z,411
2018-12-30T02:20:05.802Z,411
2018-12-30T02:21:13.741Z,412
2018-12-30T02:22:21.489Z,413
2018-12-30T02:23:29.273Z,415
2018-12-30T02:24:36.837Z,417
2018-12-30T02:25:44.224Z,415
2018-12-30T02:26:51.739Z,415
2018-12-30T02:27:59.459Z,415
2018-12-30T02:29:07.192Z,415
2018-12-30T02:30:14.985Z,418
2018-12-30T02:31:37.028Z,417
2018-12-30T02:32:44.222Z,419
2018-12-30T02:33:51.419Z,420
2018-12-30T02:34:58.343Z,419
2018-12-30T02:36:05.537Z,422
2018-12-30T02:37:12.468Z,422
2018-12-30T02:38:19.660Z,423
2018-12-30T02:39:26.860Z,425
2018-12-30T02:40:33.782Z,425
2018-12-30T02:41:40.981Z,424
2018-12-30T02:42:47.948Z,422
2018-12-30T02:43:54.589Z,420
2018-12-30T02:45:01.511Z,423
2018-12-30T02:46:08.712Z,423
2018-12-30T02:47:15.936Z,423
2018-12-30T02:48:23.156Z,425
2018-12-30T02:49:30.352Z,426
2018-12-30T02:50:37.566Z,425
2018-12-30T02:51:51.291Z,423
2018-12-30T02:52:58.490Z,424
2018-12-30T02:54:05.707Z,422
2018-12-30T02:55:12.902Z,420
2018-12-30T02:56:20.114Z,420
2018-12-30T02:57:27.312Z,418
2018-12-30T02:58:34.543Z,417
2018-12-30T02:59:41.727Z,422
2018-12-30T03:00:48.976Z,421
2018-12-30T03:01:55.900Z,419
2018-12-30T03:03:03.094Z,418
2018-12-30T03:04:10.020Z,421
2018-12-30T03:05:17.229Z,421
2018-12-30T03:06:24.424Z,421
2018-12-30T03:07:31.622Z,418
2018-12-30T03:08:38.884Z,419
2018-12-30T03:09:45.806Z,417
2018-12-30T03:10:53.002Z,418
2018-12-30T03:12:00.204Z,421
2018-12-30T03:13:07.393Z,419
2018-12-30T03:14:14.597Z,419
2018-12-30T03:15:21.530Z,421
2018-12-30T03:16:28.719Z,430
2018-12-30T03:17:35.913Z,425
2018-12-30T03:18:43.110Z,425
2018-12-30T03:19:50.317Z,424
2018-12-30T03:20:57.505Z,422
2018-12-30T03:22:04.701Z,426
2018-12-30T03:23:11.898Z,428
2018-12-30T03:24:18.901Z,425
2018-12-30T03:25:25.546Z,423
2018-12-30T03:26:32.744Z,424
2018-12-30T03:27:39.942Z,423
2018-12-30T03:28:47.139Z,424
2018-12-30T03:29:54.066Z,423
2018-12-30T03:31:01.282Z,422
2018-12-30T03:32:08.482Z,423
2018-12-30T03:33:15.666Z,425
2018-12-30T03:34:22.594Z,424
2018-12-30T03:35:29.795Z,423
2018-12-30T03:36:36.991Z,423
2018-12-30T03:37:44.185Z,424
2018-12-30T03:38:51.380Z,423
2018-12-30T03:39:58.579Z,425
2018-12-30T03:41:05.776Z,425
2018-12-30T03:42:12.974Z,425
2018-12-30T03:43:19.909Z,422
2018-12-30T03:44:27.111Z,422
2018-12-30T03:45:34.304Z,422
2018-12-30T03:46:41.506Z,423
2018-12-30T03:47:48.706Z,422
2018-12-30T03:48:55.633Z,423
2018-12-30T03:50:02.855Z,422
2018-12-30T03:51:09.782Z,422
2018-12-30T03:52:16.978Z,422
2018-12-30T03:53:23.621Z,423
2018-12-30T03:54:30.817Z,423
2018-12-30T03:55:38.015Z,423
2018-12-30T03:56:45.218Z,422
2018-12-30T03:57:52.412Z,422
2018-12-30T03:58:59.608Z,422
2018-12-30T04:00:06.806Z,422
2018-12-30T04:01:14.006Z,421
2018-12-30T04:02:21.003Z,421
2018-12-30T04:03:27.929Z,421
2018-12-30T04:04:34.850Z,421
2018-12-30T04:05:42.045Z,421
2018-12-30T04:06:49.245Z,421
2018-12-30T04:07:56.170Z,422
2018-12-30T04:09:03.369Z,421
2018-12-30T04:10:10.571Z,420
2018-12-30T04:11:17.767Z,419
2018-12-30T04:12:25.040Z,420
2018-12-30T04:13:32.248Z,419
2018-12-30T04:14:39.295Z,418
2018-12-30T04:15:46.220Z,416
2018-12-30T04:16:53.417Z,418
2018-12-30T04:18:00.723Z,418
2018-12-30T04:19:07.914Z,417
2018-12-30T04:20:14.536Z,418
2018-12-30T04:21:21.734Z,420
2018-12-30T04:22:28.949Z,420
2018-12-30T04:23:36.149Z,420
2018-12-30T04:24:43.359Z,422
2018-12-30T04:25:50.558Z,423
2018-12-30T04:26:57.755Z,422
2018-12-30T04:28:04.954Z,422
2018-12-30T04:29:12.149Z,420
2018-12-30T04:30:19.403Z,419
2018-12-30T04:31:26.066Z,419
2018-12-30T04:32:33.260Z,421
2018-12-30T04:33:40.461Z,421
2018-12-30T04:34:47.389Z,419
2018-12-30T04:35:54.325Z,420
2018-12-30T04:37:01.519Z,419
2018-12-30T04:38:08.717Z,421
2018-12-30T04:39:15.916Z,420
2018-12-30T04:40:23.122Z,422
2018-12-30T04:41:30.324Z,420
2018-12-30T04:42:37.521Z,420
2018-12-30T04:43:44.726Z,420
2018-12-30T04:44:51.924Z,422
2018-12-30T04:45:59.129Z,421
2018-12-30T04:47:06.325Z,422
2018-12-30T04:48:13.517Z,421
2018-12-30T04:49:20.718Z,420
2018-12-30T04:50:27.910Z,421
2018-12-30T04:51:34.924Z,422
2018-12-30T04:52:42.125Z,423
2018-12-30T04:53:49.351Z,419
2018-12-30T04:54:56.578Z,415
2018-12-30T04:56:03.772Z,411
2018-12-30T04:57:10.968Z,411
2018-12-30T04:58:18.165Z,410
2018-12-30T04:59:25.366Z,411
2018-12-30T05:00:32.293Z,412
2018-12-30T05:01:39.220Z,412
2018-12-30T05:02:46.414Z,411
2018-12-30T05:03:53.339Z,409
2018-12-30T05:05:00.278Z,408
2018-12-30T05:06:07.474Z,406
2018-12-30T05:07:14.667Z,400
2018-12-30T05:08:21.320Z,399
2018-12-30T05:09:28.516Z,398
2018-12-30T05:10:35.740Z,399
2018-12-30T05:11:42.652Z,397
2018-12-30T05:12:49.299Z,398
2018-12-30T05:13:56.495Z,397
2018-12-30T05:15:03.691Z,398
2018-12-30T05:16:10.610Z,397
2018-12-30T05:17:17.531Z,398
2018-12-30T05:18:24.812Z,398
2018-12-30T05:19:31.737Z,399
2018-12-30T05:20:38.937Z,397
2018-12-30T05:21:45.587Z,398
2018-12-30T05:22:52.790Z,398
2018-12-30T05:23:59.720Z,398
2018-12-30T05:25:06.917Z,399
2018-12-30T05:26:13.850Z,398
2018-12-30T05:27:21.041Z,398
2018-12-30T05:28:28.236Z,399
2018-12-30T05:29:35.436Z,397
2018-12-30T05:30:42.627Z,398
2018-12-30T05:31:49.826Z,397
2018-12-30T05:32:56.749Z,396
2018-12-30T05:34:03.669Z,397
2018-12-30T05:35:10.864Z,396
2018-12-30T05:36:18.064Z,398
2018-12-30T05:37:25.264Z,398
2018-12-30T05:38:32.188Z,398
2018-12-30T05:39:39.112Z,397
2018-12-30T05:40:46.311Z,398
2018-12-30T05:41:53.510Z,397
2018-12-30T05:43:00.707Z,396
2018-12-30T05:44:07.329Z,397
2018-12-30T05:45:14.602Z,396
2018-12-30T05:46:21.531Z,398
2018-12-30T05:47:28.451Z,396
2018-12-30T05:48:35.645Z,397
2018-12-30T05:49:44.603Z,397
2018-12-30T05:50:51.802Z,397
2018-12-30T05:51:58.996Z,397
2018-12-30T05:53:06.195Z,397
2018-12-30T05:54:13.389Z,397
2018-12-30T05:55:20.587Z,397
2018-12-30T05:56:27.784Z,396
2018-12-30T05:57:34.707Z,396
2018-12-30T05:58:41.904Z,397
2018-12-30T05:59:48.826Z,396
2018-12-30T06:00:55.757Z,397
2018-12-30T06:02:02.952Z,395
2018-12-30T06:03:10.149Z,396
2018-12-30T06:04:17.365Z,397
2018-12-30T06:05:24.563Z,397
2018-12-30T06:06:31.218Z,398
2018-12-30T06:07:38.416Z,397
2018-12-30T06:08:45.614Z,398
2018-12-30T06:09:52.538Z,397
2018-12-30T06:10:59.740Z,397
2018-12-30T06:12:06.938Z,397
2018-12-30T06:13:28.785Z,397
2018-12-30T06:14:35.709Z,397
2018-12-30T06:15:42.909Z,397
2018-12-30T06:16:50.105Z,397
2018-12-30T06:17:57.303Z,396
2018-12-30T06:19:03.954Z,397
2018-12-30T06:20:11.155Z,396
2018-12-30T06:21:17.807Z,396
2018-12-30T06:22:25.005Z,397
2018-12-30T06:23:32.205Z,397
2018-12-30T06:24:39.403Z,398
2018-12-30T06:25:46.698Z,396
2018-12-30T06:26:53.625Z,396
2018-12-30T06:28:00.819Z,396
2018-12-30T06:29:08.017Z,397
2018-12-30T06:30:15.221Z,396
2018-12-30T06:31:22.416Z,396
2018-12-30T06:32:29.623Z,397
2018-12-30T06:33:36.823Z,397
2018-12-30T06:34:44.024Z,395
2018-12-30T06:35:50.959Z,397
2018-12-30T06:36:57.884Z,397
2018-12-30T06:38:05.146Z,397
2018-12-30T06:39:12.071Z,396
2018-12-30T06:40:19.270Z,396
2018-12-30T06:41:26.461Z,396
2018-12-30T06:42:33.656Z,397
2018-12-30T06:43:40.584Z,397
2018-12-30T06:44:47.778Z,397
2018-12-30T06:45:54.975Z,396
2018-12-30T06:47:02.274Z,397
2018-12-30T06:48:09.464Z,396
2018-12-30T06:49:16.663Z,396
2018-12-30T06:50:23.859Z,396
2018-12-30T06:51:30.777Z,396
2018-12-30T06:52:37.978Z,396
2018-12-30T06:53:44.908Z,396
2018-12-30T06:54:52.101Z,397
2018-12-30T06:55:59.296Z,396
2018-12-30T06:57:06.491Z,397
2018-12-30T06:58:13.684Z,396
2018-12-30T06:59:20.879Z,396
2018-12-30T07:00:28.083Z,396
2018-12-30T07:01:35.279Z,396
2018-12-30T07:02:42.476Z,395
2018-12-30T07:03:49.672Z,396
2018-12-30T07:04:56.870Z,396
2018-12-30T07:06:04.066Z,395
2018-12-30T07:07:11.264Z,396
2018-12-30T07:08:18.456Z,395
2018-12-30T07:09:25.654Z,396
2018-12-30T07:10:32.847Z,395
2018-12-30T07:11:40.047Z,395
2018-12-30T07:12:47.244Z,395
2018-12-30T07:13:54.167Z,394
2018-12-30T07:15:01.363Z,395
2018-12-30T07:16:08.557Z,395
2018-12-30T07:17:15.494Z,395
2018-12-30T07:18:22.702Z,395
2018-12-30T07:19:29.908Z,395
2018-12-30T07:20:36.834Z,396
2018-12-30T07:21:43.751Z,395
2018-12-30T07:22:50.955Z,395
2018-12-30T07:23:58.146Z,396
2018-12-30T07:25:05.350Z,394
2018-12-30T07:26:12.543Z,401
2018-12-30T07:27:19.468Z,397
2018-12-30T07:28:26.660Z,395
2018-12-30T07:29:33.862Z,395
2018-12-30T07:30:41.055Z,395
2018-12-30T07:31:48.251Z,395
2018-12-30T07:32:55.448Z,395
2018-12-30T07:34:02.646Z,395
2018-12-30T07:35:09.846Z,395
2018-12-30T07:36:17.042Z,396
2018-12-30T07:37:24.239Z,395
2018-12-30T07:38:31.434Z,395
2018-12-30T07:39:38.082Z,396
2018-12-30T07:40:45.017Z,396
2018-12-30T07:41:51.934Z,395
2018-12-30T07:42:59.129Z,395
2018-12-30T07:44:06.330Z,396
2018-12-30T07:45:13.527Z,395
2018-12-30T07:46:20.725Z,395
2018-12-30T07:47:27.923Z,394
2018-12-30T07:48:35.119Z,394
2018-12-30T07:49:42.322Z,394
2018-12-30T07:50:49.521Z,394
2018-12-30T07:51:56.720Z,394
2018-12-30T07:53:03.920Z,394
2018-12-30T07:54:11.118Z,394
2018-12-30T07:55:18.352Z,394
2018-12-30T07:56:25.545Z,393
2018-12-30T07:57:32.749Z,394
2018-12-30T07:58:39.948Z,394
2018-12-30T07:59:47.141Z,394
2018-12-30T08:00:54.335Z,394
2018-12-30T08:02:01.258Z,394
2018-12-30T08:03:08.454Z,394
2018-12-30T08:04:15.375Z,394
2018-12-30T08:05:22.022Z,394
2018-12-30T08:06:29.220Z,394
2018-12-30T08:07:36.144Z,394
2018-12-30T08:08:43.344Z,393
2018-12-30T08:09:50.607Z,394
2018-12-30T08:10:57.806Z,393
2018-12-30T08:12:05.000Z,393
2018-12-30T08:13:11.922Z,394
2018-12-30T08:14:19.116Z,394
2018-12-30T08:15:26.038Z,394
2018-12-30T08:16:33.239Z,393
2018-12-30T08:17:40.436Z,393
2018-12-30T08:18:47.637Z,393
2018-12-30T08:19:54.832Z,392
2018-12-30T08:21:02.034Z,393
2018-12-30T08:22:09.228Z,392
2018-12-30T23:00:07.083Z,387
2018-12-30T23:01:14.030Z,389
2018-12-30T23:02:21.262Z,388
2018-12-30T23:03:28.890Z,388
2018-12-30T23:04:36.109Z,387
2018-12-30T23:05:43.055Z,387
2018-12-30T23:06:49.997Z,386
2018-12-30T23:07:57.216Z,386
2018-12-30T23:09:04.168Z,386
2018-12-30T23:10:11.393Z,386
2018-12-30T23:11:18.622Z,385
2018-12-30T23:12:25.897Z,385
2018-12-30T23:13:33.119Z,385
2018-12-30T23:14:40.344Z,385
2018-12-30T23:15:47.565Z,385
2018-12-30T23:16:54.792Z,385
2018-12-30T23:18:02.002Z,384
2018-12-30T23:19:08.675Z,384
2018-12-30T23:20:15.613Z,384
2018-12-30T23:21:22.821Z,383
2018-12-30T23:22:30.043Z,384
2018-12-30T23:23:37.266Z,383
2018-12-30T23:24:44.484Z,383
2018-12-30T23:25:51.489Z,383
2018-12-30T23:26:58.694Z,384
2018-12-30T23:28:05.906Z,384
2018-12-30T23:29:13.208Z,384
2018-12-30T23:30:20.423Z,384
2018-12-30T23:31:27.650Z,383
2018-12-30T23:32:34.859Z,384
2018-12-30T23:33:42.076Z,383
2018-12-30T23:34:49.010Z,383
2018-12-30T23:35:56.228Z,384
2018-12-30T23:37:03.497Z,384
2018-12-30T23:38:10.719Z,384
2018-12-30T23:39:17.985Z,384
2018-12-30T23:40:24.923Z,383
2018-12-30T23:41:32.138Z,383
2018-12-30T23:42:39.092Z,383
2018-12-30T23:43:46.292Z,384
2018-12-30T23:44:53.501Z,383
2018-12-30T23:46:00.703Z,384
2018-12-30T23:47:07.912Z,384
2018-12-30T23:48:15.133Z,383
2018-12-30T23:49:22.337Z,383
2018-12-30T23:50:29.549Z,383
2018-12-30T23:51:36.759Z,382
2018-12-30T23:52:44.029Z,384
2018-12-30T23:53:51.242Z,383
2018-12-30T23:54:58.449Z,383
2018-12-30T23:56:05.657Z,383
2018-12-30T23:57:12.595Z,383
2018-12-30T23:58:19.795Z,383
2018-12-30T23:59:26.993Z,383
